sim
Sign-in with your pilot id or email,
or register
Callsign
Passwort

Schedule Details

Flight Number: OEG5211
Departure: Frankfurt Airport (EDDF) at 14:00
Arrival: Munich Airport (EDDM) at 14:45
Route: DKB T104 ANORA

Weather Information
Getting current METAR information for EDDF 282150Z 21003KT 9999 FEW036 09/08 Q1014 NOSIG
Getting current METAR information for EDDM 282150Z VRB02KT CAVOK 08/07 Q1016 NOSIG

Schedule Frequency

Route Map